Time;durP1;ratioP1;P1;durP2;ratioP2;P2;SDS_P1;SDS_P2;PMS_P1;PMS_P2;Temp;Humidity;BMP_temperature;BMP_pressure;BME280_temperature;BME280_humidity;BME280_pressure;Samples;Min_cycle;Max_cycle;Signal;HPM_P1;HPM_P2
2022/10/08 11:33:30;;;;;;;1023.83;938.10;;;;;;;;;;17419182;27;20585;-77
2022/10/08 11:41:57;;;;;;;1032.97;946.10;;;;;;;;;;17389623;28;20192;-76
2022/10/08 11:50:25;;;;;;;1036.63;949.97;;;;;;;;;;17350675;28;20196;-77
2022/10/08 11:58:52;;;;;;;1019.97;934.23;;;;;;;;;;17345162;28;20172;-77
2022/10/08 12:07:22;;;;;;;1021.97;936.17;;;;;;;;;;17329930;28;20299;-77
2022/10/08 12:15:45;;;;;;;1022.73;936.63;;;;;;;;;;17278564;28;20528;-77
2022/10/08 12:24:25;;;;;;;1016.50;930.60;;;;;;;;;;17278733;28;20636;-77
2022/10/08 12:32:49;;;;;;;1001.43;916.90;;;;;;;;;;17278370;28;20225;-77
2022/10/08 12:41:15;;;;;;;1000.80;916.37;;;;;;;;;;17253012;28;20173;-78
2022/10/08 12:49:39;;;;;;;1028.17;942.10;;;;;;;;;;17231403;28;20208;-77
2022/10/08 12:58:00;;;;;;;1016.03;930.93;;;;;;;;;;17232973;28;20173;-77
2022/10/08 13:06:26;;;;;;;1029.80;943.87;;;;;;;;;;17231064;28;20677;-77
2022/10/08 13:14:56;;;;;;;1045.20;957.80;;;;;;;;;;17229824;28;20188;-77
2022/10/08 13:23:40;;;;;;;1034.00;947.00;;;;;;;;;;17224892;28;20174;-76
2022/10/08 13:32:03;;;;;;;1010.10;924.50;;;;;;;;;;17223227;28;20245;-77
2022/10/08 13:40:24;;;;;;;1006.10;920.70;;;;;;;;;;17229243;28;20228;-76
2022/10/08 13:48:44;;;;;;;992.13;908.00;;;;;;;;;;17227212;28;20202;-77
2022/10/08 13:57:04;;;;;;;1004.77;919.93;;;;;;;;;;17227973;28;20260;-77
2022/10/08 14:05:26;;;;;;;1003.90;919.93;;;;;;;;;;17226573;28;20531;-77
2022/10/08 14:13:46;;;;;;;993.13;909.50;;;;;;;;;;17226047;28;20699;-77
2022/10/08 14:22:08;;;;;;;1004.43;920.07;;;;;;;;;;17225578;28;20178;-77
2022/10/08 14:30:29;;;;;;;996.33;912.07;;;;;;;;;;17224536;28;20244;-77
2022/10/08 14:38:49;;;;;;;982.07;898.77;;;;;;;;;;17225881;28;20205;-76
2022/10/08 14:47:10;;;;;;;982.47;899.00;;;;;;;;;;17225913;28;20526;-76
2022/10/08 14:55:30;;;;;;;961.17;878.23;;;;;;;;;;17225225;28;20192;-76
2022/10/08 15:03:51;;;;;;;923.30;842.17;;;;;;;;;;17225940;28;20188;-76
2022/10/08 15:12:11;;;;;;;929.70;848.10;;;;;;;;;;17225545;28;20653;-76
2022/10/08 15:20:33;;;;;;;890.37;810.30;;;;;;;;;;17220338;28;20205;-77
2022/10/08 15:28:53;;;;;;;897.27;817.10;;;;;;;;;;17222792;28;20716;-76
2022/10/08 15:37:14;;;;;;;871.83;792.57;;;;;;;;;;17222918;28;20185;-77
2022/10/08 16:25:13;;;;;;;852.47;773.93;;;;;;;;;;6588180;28;20595;-79
2022/10/08 16:28:23;;;;;;;786.23;710.10;;;;;;;;;;6589300;28;20227;-79
2022/10/08 16:31:39;;;;;;;767.83;692.37;;;;;;;;;;6590012;28;20179;-80
2022/10/08 16:34:49;;;;;;;756.37;679.53;;;;;;;;;;6585815;28;20185;-79
2022/10/08 16:37:59;;;;;;;738.40;663.03;;;;;;;;;;6590430;28;20184;-80
2022/10/08 16:41:15;;;;;;;765.70;689.70;;;;;;;;;;6588708;28;20180;-79
2022/10/08 16:44:26;;;;;;;747.87;672.40;;;;;;;;;;6587466;28;20750;-80
2022/10/08 16:47:36;;;;;;;759.00;683.37;;;;;;;;;;6589069;28;20262;-79
2022/10/08 16:50:47;;;;;;;750.13;674.90;;;;;;;;;;6588829;28;20508;-79
2022/10/08 16:53:59;;;;;;;754.40;679.20;;;;;;;;;;6586966;28;20185;-79
2022/10/08 16:57:09;;;;;;;740.50;665.00;;;;;;;;;;6582660;28;20207;-79
2022/10/08 17:00:20;;;;;;;761.20;684.90;;;;;;;;;;6590848;28;20180;-79
2022/10/08 17:03:31;;;;;;;760.73;684.27;;;;;;;;;;6588536;28;20215;-80
2022/10/08 17:06:42;;;;;;;749.67;673.57;;;;;;;;;;6586793;28;20169;-80
2022/10/08 17:09:52;;;;;;;756.80;680.13;;;;;;;;;;6586078;28;20654;-80
2022/10/08 17:13:02;;;;;;;751.37;675.10;;;;;;;;;;6587278;28;20177;-80
2022/10/08 17:16:14;;;;;;;741.63;665.40;;;;;;;;;;6590554;28;20192;-80
2022/10/08 17:35:17;;;;;;;6.03;5.53;;;;;;;;;;6563859;27;20374;-77
2022/10/08 17:38:28;;;;;;;7.57;6.87;;;;;;;;;;6541616;28;20640;-74
2022/10/08 17:41:39;;;;;;;18.43;17.17;;;;;;;;;;6542740;28;20148;-69
2022/10/08 17:44:49;;;;;;;480.03;447.87;;;;;;;;;;6544144;28;20192;-72
2022/10/08 17:47:59;;;;;;;425.98;397.88;;;;;;;;;;6539734;28;20177;-72
2022/10/08 17:51:12;;;;;;;134.10;124.03;;;;;;;;;;6535363;28;20192;-71
2022/10/08 17:54:22;;;;;;;251.52;229.13;;;;;;;;;;6540277;28;20210;-71
2022/10/08 17:57:32;;;;;;;42.08;29.10;;;;;;;;;;6529696;28;20632;-70
2022/10/08 18:00:43;;;;;;;12.25;11.32;;;;;;;;;;6526220;28;20189;-71
2022/10/08 18:03:53;;;;;;;375.67;349.58;;;;;;;;;;6542118;28;20062;-74
2022/10/08 18:07:03;;;;;;;254.48;239.63;;;;;;;;;;6541142;28;20703;-72
2022/10/08 18:10:13;;;;;;;52.88;50.00;;;;;;;;;;6539215;28;20209;-73
2022/10/08 18:13:24;;;;;;;4.70;4.30;;;;;;;;;;6531099;28;20304;-72
2022/10/08 18:16:34;;;;;;;3.97;3.67;;;;;;;;;;6511606;28;20279;-73
2022/10/08 18:19:44;;;;;;;3.78;3.30;;;;;;;;;;6544079;28;20242;-72
2022/10/08 18:22:55;;;;;;;3.25;2.83;;;;;;;;;;6538770;28;20264;-73
2022/10/08 18:26:10;;;;;;;3.05;2.80;;;;;;;;;;6537340;28;20572;-72
2022/10/08 18:29:20;;;;;;;2.30;2.20;;;;;;;;;;6547953;28;20193;-72
2022/10/08 18:32:30;;;;;;;2.03;1.92;;;;;;;;;;6542693;28;20741;-72
2022/10/08 18:35:41;;;;;;;1.75;1.73;;;;;;;;;;6538656;28;20174;-72
2022/10/08 18:38:56;;;;;;;1.95;1.85;;;;;;;;;;6543824;28;20204;-71
2022/10/08 18:42:06;;;;;;;1.30;1.30;;;;;;;;;;6546777;28;20185;-71
2022/10/08 18:45:16;;;;;;;1.33;1.23;;;;;;;;;;6531977;28;20179;-70
2022/10/08 18:50:52;;;;;;;6.28;5.70;;;;;;;;;;6666248;27;20630;-64
2022/10/08 18:54:02;;;;;;;16.42;15.52;;;;;;;;;;6665505;28;20514;-66
2022/10/08 18:57:13;;;;;;;16.38;15.20;;;;;;;;;;6669762;28;20629;-64
2022/10/08 19:00:23;;;;;;;9.32;8.52;;;;;;;;;;6668940;28;20175;-64
2022/10/08 19:03:33;;;;;;;6.57;5.97;;;;;;;;;;6666664;28;20178;-63
2022/10/08 19:06:44;;;;;;;5.43;5.03;;;;;;;;;;6668231;28;20175;-63
2022/10/08 19:09:55;;;;;;;7.18;6.57;;;;;;;;;;6670468;28;20206;-63
2022/10/08 19:13:05;;;;;;;5.93;5.40;;;;;;;;;;6668144;28;20175;-63
2022/10/08 19:16:16;;;;;;;11.40;10.30;;;;;;;;;;6669390;28;20206;-63
2022/10/08 19:19:26;;;;;;;5.93;5.43;;;;;;;;;;6670644;28;20195;-64
2022/10/08 19:22:37;;;;;;;6.97;6.43;;;;;;;;;;6659358;28;20178;-64
2022/10/08 19:25:54;;;;;;;6.65;6.05;;;;;;;;;;6660667;28;20181;-63
2022/10/08 19:29:04;;;;;;;9.27;8.38;;;;;;;;;;6656150;28;20298;-63
2022/10/08 19:32:14;;;;;;;10.68;9.60;;;;;;;;;;6655219;28;20646;-63
2022/10/08 19:35:25;;;;;;;7.35;6.65;;;;;;;;;;6656214;28;20593;-63
2022/10/08 19:38:35;;;;;;;5.53;5.03;;;;;;;;;;6656527;28;20163;-63
2022/10/08 19:41:45;;;;;;;7.93;7.22;;;;;;;;;;6657448;28;20315;-64
2022/10/08 19:44:56;;;;;;;6.60;6.00;;;;;;;;;;6657000;28;20178;-63
2022/10/08 19:48:06;;;;;;;5.80;5.30;;;;;;;;;;6655144;28;20234;-63
2022/10/08 19:51:17;;;;;;;5.55;5.05;;;;;;;;;;6656682;28;20726;-63
2022/10/08 19:54:27;;;;;;;8.30;7.60;;;;;;;;;;6658338;28;20170;-63
2022/10/08 19:57:37;;;;;;;9.90;8.90;;;;;;;;;;6658651;28;20170;-64
2022/10/08 20:00:56;;;;;;;5.43;5.03;;;;;;;;;;6649095;28;20258;-66
2022/10/08 21:54:20;;;;;;;5.45;5.05;;;;;;;;;;6608753;28;20591;-65
2022/10/08 21:57:30;;;;;;;5.80;5.30;;;;;;;;;;6602935;28;20193;-66
2022/10/08 22:00:41;;;;;;;4.70;4.30;;;;;;;;;;6591320;28;20231;-65
2022/10/08 22:03:53;;;;;;;5.80;5.30;;;;;;;;;;6591445;28;20199;-66
2022/10/08 22:07:04;;;;;;;5.82;5.32;;;;;;;;;;6590810;28;20695;-67
2022/10/08 22:10:14;;;;;;;5.63;5.13;;;;;;;;;;6590759;28;20177;-66
2022/10/08 22:13:24;;;;;;;5.55;5.05;;;;;;;;;;6590772;28;20529;-66
2022/10/08 22:16:35;;;;;;;5.40;5.00;;;;;;;;;;6583697;28;20208;-65
2022/10/08 22:19:45;;;;;;;5.80;5.30;;;;;;;;;;6564611;28;20618;-65
2022/10/08 22:22:56;;;;;;;5.57;5.10;;;;;;;;;;6565091;28;20173;-66
2022/10/08 22:26:08;;;;;;;5.30;4.90;;;;;;;;;;6564811;28;20203;-66
2022/10/08 22:29:19;;;;;;;5.10;4.70;;;;;;;;;;6564296;28;20192;-66
2022/10/08 22:32:29;;;;;;;5.47;5.00;;;;;;;;;;6564456;28;20189;-66
2022/10/08 22:35:39;;;;;;;5.20;4.80;;;;;;;;;;6564468;28;20169;-66
2022/10/08 22:38:50;;;;;;;4.80;4.35;;;;;;;;;;6579659;28;20169;-66
2022/10/08 22:42:00;;;;;;;5.30;4.80;;;;;;;;;;6564483;28;20200;-66
2022/10/08 22:45:11;;;;;;;6.05;5.55;;;;;;;;;;6564303;28;20197;-66
2022/10/08 22:48:21;;;;;;;5.72;5.20;;;;;;;;;;6563962;28;20174;-66
2022/10/08 22:51:31;;;;;;;6.13;5.28;;;;;;;;;;6563669;28;20240;-66
2022/10/08 22:54:42;;;;;;;5.47;5.00;;;;;;;;;;6563093;28;20204;-66
2022/10/08 22:57:52;;;;;;;5.65;5.25;;;;;;;;;;6564128;28;20180;-66
